createdAt,value
2023-03-20T00:02:19.763Z,14.50
2023-03-20T00:04:47.140Z,14.50
2023-03-20T00:07:14.662Z,14.50
2023-03-20T00:09:42.358Z,14.50
2023-03-20T00:12:22.256Z,14.40
2023-03-20T00:14:49.808Z,14.40
2023-03-20T00:17:20.651Z,14.40
2023-03-20T00:19:48.104Z,14.40
2023-03-20T00:22:15.369Z,14.40
2023-03-20T00:24:42.733Z,14.40
2023-03-20T00:27:15.674Z,14.30
2023-03-20T00:29:44.108Z,14.30
2023-03-20T00:32:13.182Z,14.30
2023-03-20T00:34:40.966Z,14.30
2023-03-20T00:37:09.581Z,14.30
2023-03-20T00:39:37.013Z,14.30
2023-03-20T00:42:06.204Z,14.30
2023-03-20T00:44:42.399Z,14.30
2023-03-20T00:47:20.540Z,14.20
2023-03-20T00:49:50.707Z,14.20
2023-03-20T00:52:19.724Z,14.20
2023-03-20T00:54:47.780Z,14.10
2023-03-20T00:57:21.602Z,14.10
2023-03-20T01:00:01.272Z,14.00
2023-03-20T01:02:30.960Z,14.10
2023-03-20T01:04:58.462Z,14.10
2023-03-20T01:07:27.563Z,14.10
2023-03-20T01:09:56.097Z,14.10
2023-03-20T01:12:24.099Z,14.10
2023-03-20T01:14:57.826Z,14.10
2023-03-20T01:17:27.887Z,14.10
2023-03-20T01:19:55.246Z,14.10
2023-03-20T01:22:22.719Z,14.10
2023-03-20T01:24:50.165Z,14.10
2023-03-20T01:27:19.736Z,14.00
2023-03-20T01:29:47.903Z,14.00
2023-03-20T01:32:17.943Z,14.00
2023-03-20T01:34:48.912Z,14.00
2023-03-20T01:37:27.749Z,14.00
2023-03-20T01:39:58.889Z,13.90
2023-03-20T01:42:27.567Z,13.90
2023-03-20T01:44:55.007Z,13.90
2023-03-20T01:47:24.825Z,13.90
2023-03-20T01:50:19.592Z,13.90
2023-03-20T01:52:51.381Z,13.90
2023-03-20T01:55:20.356Z,13.90
2023-03-20T01:57:57.710Z,13.90
2023-03-20T02:00:25.631Z,13.80
2023-03-20T02:02:54.785Z,14.30
2023-03-20T02:06:00.358Z,13.90
2023-03-20T02:08:47.477Z,13.80
2023-03-20T02:11:16.786Z,13.80
2023-03-20T02:13:44.716Z,13.80
2023-03-20T02:16:15.304Z,13.80
2023-03-20T02:19:11.418Z,13.80
2023-03-20T02:21:58.060Z,13.80
2023-03-20T02:25:15.727Z,13.70
2023-03-20T02:28:09.477Z,13.70
2023-03-20T02:31:05.964Z,13.70
2023-03-20T02:33:50.993Z,13.60
2023-03-20T02:36:37.022Z,13.60
2023-03-20T02:39:12.298Z,13.60
2023-03-20T02:41:47.904Z,13.50
2023-03-20T02:44:32.424Z,13.50
2023-03-20T02:47:06.645Z,13.50
2023-03-20T02:50:02.411Z,13.50
2023-03-20T02:52:35.513Z,13.40
2023-03-20T02:55:14.268Z,13.40
2023-03-20T02:58:07.588Z,13.40
2023-03-20T03:00:47.397Z,13.30
2023-03-20T03:03:28.920Z,13.30
2023-03-20T03:05:58.995Z,13.40
2023-03-20T03:08:32.425Z,13.40
2023-03-20T03:11:06.300Z,13.40
2023-03-20T03:13:39.696Z,13.30
2023-03-20T03:16:13.204Z,13.30
2023-03-20T03:18:42.615Z,13.30
2023-03-20T03:21:16.328Z,13.30
2023-03-20T03:23:47.869Z,13.40
2023-03-20T03:26:25.290Z,13.30
2023-03-20T03:28:59.326Z,13.30
2023-03-20T03:31:27.335Z,13.30
2023-03-20T03:33:57.170Z,13.40
2023-03-20T03:36:27.288Z,13.40
2023-03-20T03:39:15.720Z,13.40
2023-03-20T03:41:49.117Z,13.50
2023-03-20T03:44:20.911Z,13.50
2023-03-20T03:46:56.848Z,13.40
2023-03-20T03:49:31.991Z,13.40
2023-03-20T03:52:03.735Z,13.40
2023-03-20T03:54:37.647Z,13.40
2023-03-20T03:57:31.401Z,13.30
2023-03-20T04:00:02.315Z,13.40
2023-03-20T04:02:46.701Z,13.40
2023-03-20T04:05:16.325Z,13.40
2023-03-20T04:07:48.082Z,13.40
2023-03-20T04:10:17.912Z,13.40
2023-03-20T04:12:45.844Z,13.50
2023-03-20T04:15:15.777Z,13.40
2023-03-20T04:17:44.001Z,13.50
2023-03-20T04:20:14.288Z,13.50
2023-03-20T04:22:42.508Z,13.40
2023-03-20T04:25:19.350Z,13.40
2023-03-20T04:27:47.508Z,13.40
2023-03-20T04:30:35.318Z,13.40
2023-03-20T04:33:26.300Z,13.90
2023-03-20T04:36:06.160Z,13.40
2023-03-20T04:38:33.574Z,13.40
2023-03-20T04:41:03.497Z,13.40
2023-03-20T04:43:30.880Z,13.40
2023-03-20T04:45:59.551Z,13.40
2023-03-20T04:48:27.944Z,13.30
2023-03-20T04:50:55.259Z,13.30
2023-03-20T04:53:29.115Z,13.30
2023-03-20T04:55:57.184Z,13.30
2023-03-20T04:58:24.676Z,13.40
2023-03-20T05:00:52.434Z,13.30
2023-03-20T05:03:22.537Z,13.40
2023-03-20T05:05:51.328Z,13.40
2023-03-20T05:08:19.168Z,13.40
2023-03-20T05:10:46.865Z,13.50
2023-03-20T05:13:51.810Z,13.50
2023-03-20T05:16:32.844Z,13.50
2023-03-20T05:19:17.266Z,13.60
2023-03-20T05:21:53.416Z,13.60
2023-03-20T05:24:32.986Z,13.60
2023-03-20T05:27:12.894Z,13.70
2023-03-20T05:29:48.037Z,13.70
2023-03-20T05:32:18.257Z,13.60
2023-03-20T05:35:05.386Z,13.70
2023-03-20T05:37:53.068Z,13.70
2023-03-20T05:40:31.748Z,13.70
2023-03-20T05:43:25.858Z,13.70
2023-03-20T05:46:20.327Z,13.70
2023-03-20T05:49:01.044Z,13.70
2023-03-20T05:51:51.451Z,13.70
2023-03-20T05:58:48.524Z,13.90
2023-03-20T06:06:22.931Z,13.70
2023-03-20T06:08:52.356Z,13.90
2023-03-20T06:11:21.085Z,13.90
2023-03-20T06:13:50.693Z,13.90
2023-03-20T06:16:18.289Z,13.90
2023-03-20T06:18:46.400Z,14.00
2023-03-20T06:21:13.766Z,14.00
2023-03-20T06:23:42.158Z,14.00
2023-03-20T06:26:09.870Z,14.00
2023-03-20T06:28:51.835Z,14.40
2023-03-20T06:31:19.234Z,14.00
2023-03-20T06:33:46.588Z,14.00
2023-03-20T06:36:14.488Z,14.00
2023-03-20T06:42:31.510Z,14.10
2023-03-20T06:48:01.995Z,14.10
2023-03-20T06:50:29.500Z,14.40
2023-03-20T06:53:15.880Z,14.10
2023-03-20T06:55:58.383Z,14.20
2023-03-20T06:58:58.609Z,13.90
2023-03-20T07:01:27.359Z,13.80
2023-03-20T07:03:55.090Z,14.30
2023-03-20T07:06:28.147Z,14.30
2023-03-20T07:08:55.452Z,14.30
2023-03-20T07:11:23.563Z,14.30
2023-03-20T07:13:53.904Z,14.30
2023-03-20T07:16:38.828Z,14.30
2023-03-20T07:19:06.317Z,14.30
2023-03-20T07:21:36.577Z,14.30
2023-03-20T07:24:07.599Z,14.30
2023-03-20T07:26:35.700Z,14.30
2023-03-20T07:29:03.406Z,14.40
2023-03-20T07:31:32.963Z,14.40
2023-03-20T07:34:09.728Z,14.40
2023-03-20T07:36:37.018Z,14.40
2023-03-20T07:39:04.947Z,14.50
2023-03-20T07:41:33.577Z,14.50
2023-03-20T07:44:10.604Z,14.50
2023-03-20T07:47:07.167Z,14.50
2023-03-20T07:49:35.387Z,14.50
2023-03-20T07:52:02.780Z,14.50
2023-03-20T07:54:31.594Z,14.50
2023-03-20T07:56:58.936Z,14.50
2023-03-20T07:59:26.579Z,15.10
2023-03-20T08:01:53.849Z,14.60
2023-03-20T08:04:23.116Z,14.70
2023-03-20T08:06:51.299Z,14.70
2023-03-20T08:09:19.319Z,14.70
2023-03-20T08:11:47.353Z,14.70
2023-03-20T08:14:14.794Z,14.70
2023-03-20T08:16:42.167Z,14.70
2023-03-20T08:19:09.734Z,14.80
2023-03-20T08:21:39.055Z,14.90
2023-03-20T08:24:06.767Z,14.80
2023-03-20T08:26:34.846Z,14.90
2023-03-20T08:29:03.822Z,14.90
2023-03-20T08:31:31.839Z,14.90
2023-03-20T08:33:59.328Z,14.90
2023-03-20T08:36:26.738Z,15.00
2023-03-20T08:38:54.073Z,15.00
2023-03-20T08:41:21.413Z,15.00
2023-03-20T08:43:48.754Z,15.50
2023-03-20T08:46:16.220Z,15.00
2023-03-20T08:48:43.645Z,15.00
2023-03-20T08:51:11.343Z,15.40
2023-03-20T08:53:39.052Z,15.10
2023-03-20T08:56:07.539Z,15.10
2023-03-20T08:58:35.258Z,15.10
2023-03-20T09:01:07.789Z,15.20
2023-03-20T09:03:36.349Z,15.20
2023-03-20T09:06:08.257Z,15.30
2023-03-20T09:08:36.366Z,15.30
2023-03-20T09:11:05.157Z,15.40
2023-03-20T09:13:32.830Z,15.40
2023-03-20T09:16:05.416Z,15.50
2023-03-20T09:18:33.004Z,15.50
2023-03-20T09:21:01.190Z,15.60
2023-03-20T09:23:32.924Z,16.10
2023-03-20T09:26:01.456Z,15.80
2023-03-20T09:28:31.177Z,15.90
2023-03-20T09:31:02.610Z,15.60
2023-03-20T09:33:31.401Z,16.10
2023-03-20T09:35:58.886Z,16.20
2023-03-20T09:38:26.200Z,16.30
2023-03-20T09:41:00.274Z,16.40
2023-03-20T09:43:51.976Z,16.50
2023-03-20T09:46:40.676Z,16.60
2023-03-20T09:49:31.638Z,17.10
2023-03-20T09:52:01.355Z,16.90
2023-03-20T09:54:50.776Z,17.10
2023-03-20T09:57:54.169Z,17.20
2023-03-20T10:00:49.664Z,17.40
2023-03-20T10:03:19.694Z,17.60
2023-03-20T10:06:04.760Z,17.70
2023-03-20T10:08:37.894Z,17.80
2023-03-20T10:11:23.555Z,18.30
2023-03-20T10:14:05.965Z,18.00
2023-03-20T10:16:36.938Z,18.10
2023-03-20T10:19:22.929Z,17.70
2023-03-20T10:22:02.582Z,18.10
2023-03-20T10:24:39.146Z,18.20
2023-03-20T10:27:17.764Z,18.20
2023-03-20T10:30:12.760Z,18.30
2023-03-20T10:33:34.510Z,18.20
2023-03-20T10:36:25.741Z,18.20
2023-03-20T10:39:01.674Z,18.20
2023-03-20T10:41:33.811Z,18.20
2023-03-20T10:44:02.124Z,18.60
2023-03-20T10:46:43.178Z,18.30
2023-03-20T10:49:18.646Z,18.30
2023-03-20T10:51:52.567Z,18.50
2023-03-20T10:54:43.489Z,18.50
2023-03-20T10:57:22.533Z,19.00
2023-03-20T10:59:56.748Z,19.10
2023-03-20T11:02:28.829Z,18.70
2023-03-20T11:04:56.184Z,19.10
2023-03-20T11:07:27.239Z,18.80
2023-03-20T11:10:10.868Z,18.80
2023-03-20T11:12:47.000Z,19.20
2023-03-20T11:15:16.551Z,18.80
2023-03-20T11:18:00.955Z,18.90
2023-03-20T11:20:47.042Z,19.00
2023-03-20T11:23:36.609Z,19.00
2023-03-20T11:26:11.693Z,19.30
2023-03-20T11:28:48.374Z,19.30
2023-03-20T11:31:19.625Z,19.40
2023-03-20T11:34:16.157Z,19.50
2023-03-20T11:37:16.678Z,19.60
2023-03-20T11:39:56.528Z,19.60
2023-03-20T11:42:27.678Z,19.60
2023-03-20T11:45:05.687Z,19.50
2023-03-20T11:47:35.725Z,19.80
2023-03-20T11:50:36.749Z,19.50
2023-03-20T11:53:32.334Z,19.60
2023-03-20T11:56:05.083Z,19.80
2023-03-20T11:58:33.811Z,20.10
2023-03-20T12:01:02.970Z,19.90
2023-03-20T12:03:43.375Z,19.90
2023-03-20T12:06:21.639Z,19.90
2023-03-20T12:09:00.857Z,20.00
2023-03-20T12:11:37.564Z,20.00
2023-03-20T12:14:11.765Z,20.10
2023-03-20T12:16:40.777Z,19.70
2023-03-20T12:19:20.825Z,20.20
2023-03-20T12:21:59.348Z,20.20
2023-03-20T12:24:46.069Z,20.20
2023-03-20T12:27:37.125Z,20.20
2023-03-20T12:30:10.005Z,20.20
2023-03-20T12:32:54.488Z,20.20
2023-03-20T12:35:32.168Z,20.20
2023-03-20T12:38:00.820Z,20.20
2023-03-20T12:40:42.528Z,20.20
2023-03-20T12:43:30.893Z,20.20
2023-03-20T12:46:25.166Z,20.20
2023-03-20T12:49:04.372Z,20.20
2023-03-20T12:52:08.832Z,20.30
2023-03-20T12:54:50.612Z,20.20
2023-03-20T12:57:49.535Z,20.30
2023-03-20T13:00:24.100Z,20.30
2023-03-20T13:03:32.288Z,20.50
2023-03-20T13:06:15.607Z,20.30
2023-03-20T13:09:17.569Z,20.30
2023-03-20T13:12:03.598Z,20.30
2023-03-20T13:14:46.198Z,20.30
2023-03-20T13:17:26.612Z,20.30
2023-03-20T13:20:27.204Z,20.30
2023-03-20T13:22:54.755Z,20.30
2023-03-20T13:25:54.674Z,20.40
2023-03-20T13:28:31.772Z,20.40
2023-03-20T13:31:29.562Z,20.30
2023-03-20T13:34:02.673Z,20.30
2023-03-20T13:36:41.586Z,20.10
2023-03-20T13:39:32.865Z,20.10
2023-03-20T13:42:01.649Z,20.00
2023-03-20T13:44:35.100Z,20.00
2023-03-20T13:47:26.893Z,20.00
2023-03-20T13:50:14.439Z,20.00
2023-03-20T13:53:00.918Z,20.00
2023-03-20T13:55:48.730Z,20.00
2023-03-20T13:58:41.192Z,20.30
2023-03-20T14:01:35.188Z,20.00
2023-03-20T14:04:03.462Z,20.00
2023-03-20T14:06:30.804Z,20.00
2023-03-20T14:08:59.507Z,19.80
2023-03-20T14:11:35.264Z,19.80
2023-03-20T14:14:12.716Z,19.90
2023-03-20T14:16:41.296Z,19.70
2023-03-20T14:19:24.226Z,19.70
2023-03-20T14:21:55.264Z,19.60
2023-03-20T14:24:25.034Z,19.70
2023-03-20T14:26:58.957Z,19.60
2023-03-20T14:29:35.580Z,19.80
2023-03-20T14:32:16.008Z,19.60
2023-03-20T14:34:48.284Z,19.60
2023-03-20T14:37:37.640Z,19.60
2023-03-20T14:40:22.470Z,19.70
2023-03-20T14:43:20.158Z,19.70
2023-03-20T14:45:57.145Z,19.70
2023-03-20T14:48:44.435Z,19.80
2023-03-20T14:51:31.016Z,19.80
2023-03-20T14:54:21.206Z,19.70
2023-03-20T14:56:50.068Z,19.70
2023-03-20T14:59:20.280Z,19.80
2023-03-20T15:01:57.963Z,19.80
2023-03-20T15:04:42.168Z,20.00
2023-03-20T15:07:26.837Z,19.70
2023-03-20T15:10:02.777Z,19.70
2023-03-20T15:12:35.937Z,19.70
2023-03-20T15:15:09.407Z,19.60
2023-03-20T15:17:47.386Z,19.60
2023-03-20T15:20:15.343Z,19.60
2023-03-20T15:22:57.170Z,19.50
2023-03-20T15:25:32.516Z,19.50
2023-03-20T15:28:00.408Z,19.50
2023-03-20T15:30:31.916Z,19.60
2023-03-20T15:32:59.450Z,19.50
2023-03-20T15:35:27.308Z,19.50
2023-03-20T15:37:58.412Z,19.60
2023-03-20T15:40:40.119Z,19.40
2023-03-20T15:43:25.156Z,19.30
2023-03-20T15:46:17.476Z,19.20
2023-03-20T15:48:48.711Z,19.50
2023-03-20T15:51:17.339Z,18.90
2023-03-20T15:53:47.785Z,19.00
2023-03-20T15:56:19.474Z,18.90
2023-03-20T15:58:50.268Z,18.90
2023-03-20T16:01:20.378Z,18.90
2023-03-20T16:03:49.383Z,18.80
2023-03-20T16:06:22.159Z,18.80
2023-03-20T16:09:01.332Z,18.70
2023-03-20T16:11:42.085Z,18.60
2023-03-20T16:14:18.616Z,18.50
2023-03-20T16:16:49.504Z,18.40
2023-03-20T16:19:31.091Z,18.40
2023-03-20T16:22:11.720Z,18.20
2023-03-20T16:24:40.811Z,18.30
2023-03-20T16:27:09.700Z,18.20
2023-03-20T16:30:30.419Z,18.10
2023-03-20T16:33:17.889Z,18.10
2023-03-20T16:35:48.969Z,18.10
2023-03-20T16:38:29.706Z,18.10
2023-03-20T16:41:50.162Z,17.80
2023-03-20T16:44:20.187Z,17.80
2023-03-20T16:47:16.850Z,18.00
2023-03-20T16:50:01.474Z,17.60
2023-03-20T16:52:32.299Z,17.50
2023-03-20T16:55:01.233Z,17.50
2023-03-20T16:57:36.335Z,17.10
2023-03-20T17:00:27.277Z,17.60
2023-03-20T17:03:05.705Z,17.50
2023-03-20T17:05:55.383Z,17.40
2023-03-20T17:08:30.586Z,17.40
2023-03-20T17:11:00.324Z,17.20
2023-03-20T17:13:27.760Z,17.10
2023-03-20T17:15:55.508Z,17.10
2023-03-20T17:18:25.646Z,17.10
2023-03-20T17:20:53.132Z,17.10
2023-03-20T17:23:22.060Z,17.10
2023-03-20T17:25:50.747Z,17.10
2023-03-20T17:28:21.301Z,17.10
2023-03-20T17:30:50.264Z,17.10
2023-03-20T17:33:21.361Z,17.10
2023-03-20T17:35:49.624Z,17.50
2023-03-20T17:38:21.201Z,17.10
2023-03-20T17:40:50.895Z,17.00
2023-03-20T17:43:20.209Z,17.00
2023-03-20T17:45:48.512Z,17.00
2023-03-20T17:48:21.107Z,16.90
2023-03-20T17:50:50.822Z,16.90
2023-03-20T17:53:24.378Z,17.20
2023-03-20T17:55:52.811Z,16.90
2023-03-20T17:58:24.507Z,16.80
2023-03-20T18:00:53.403Z,16.80
2023-03-20T18:03:21.328Z,16.70
2023-03-20T18:05:50.860Z,16.70
2023-03-20T18:08:21.382Z,16.70
2023-03-20T18:10:51.759Z,16.70
2023-03-20T18:13:21.279Z,16.60
2023-03-20T18:15:53.679Z,17.20
2023-03-20T18:18:23.829Z,17.10
2023-03-20T18:20:53.243Z,16.60
2023-03-20T18:23:21.759Z,16.60
2023-03-20T18:25:49.102Z,16.50
2023-03-20T18:28:24.433Z,16.50
2023-03-20T18:30:51.961Z,16.50
2023-03-20T18:33:25.452Z,16.50
2023-03-20T18:35:53.808Z,16.50
2023-03-20T18:38:24.354Z,16.50
2023-03-20T18:40:52.651Z,16.40
2023-03-20T18:43:20.200Z,16.40
2023-03-20T18:45:47.687Z,16.30
2023-03-20T18:48:15.283Z,16.30
2023-03-20T18:50:43.484Z,16.30
2023-03-20T18:53:11.748Z,16.30
2023-03-20T18:55:39.103Z,16.30
2023-03-20T18:58:06.761Z,16.30
2023-03-20T19:00:39.873Z,16.20
2023-03-20T19:03:08.475Z,16.20
2023-03-20T19:05:36.965Z,16.20
2023-03-20T19:08:04.644Z,16.20
2023-03-20T19:10:37.856Z,16.20
2023-03-20T19:13:07.466Z,16.20
2023-03-20T19:15:37.383Z,16.10
2023-03-20T19:18:07.688Z,16.10
2023-03-20T19:20:41.670Z,16.10
2023-03-20T19:23:14.646Z,16.10
2023-03-20T19:25:44.218Z,16.10
2023-03-20T19:28:36.993Z,16.00
2023-03-20T19:31:06.061Z,16.00
2023-03-20T19:33:33.588Z,16.00
2023-03-20T19:36:04.157Z,16.00
2023-03-20T19:38:32.816Z,15.90
2023-03-20T19:41:02.461Z,15.90
2023-03-20T19:43:29.823Z,15.90
2023-03-20T19:45:59.309Z,15.90
2023-03-20T19:48:49.158Z,15.80
2023-03-20T19:51:20.351Z,15.80
2023-03-20T19:53:47.851Z,15.80
2023-03-20T19:56:17.758Z,15.80
2023-03-20T19:58:45.233Z,15.80
2023-03-20T20:01:21.341Z,15.80
2023-03-20T20:03:49.756Z,15.70
2023-03-20T20:06:20.112Z,15.70
2023-03-20T20:08:49.686Z,15.70
2023-03-20T20:11:19.023Z,15.70
2023-03-20T20:16:36.365Z,15.70
2023-03-20T20:19:04.328Z,15.60
2023-03-20T20:22:17.079Z,15.60
2023-03-20T20:24:20.172Z,15.50
2023-03-20T20:26:54.759Z,15.50
2023-03-20T20:29:28.148Z,15.50
2023-03-20T20:31:55.651Z,15.90
2023-03-20T20:39:59.041Z,15.40
2023-03-20T20:42:26.538Z,15.40
2023-03-20T20:44:54.030Z,15.30
2023-03-20T20:47:21.773Z,15.30
2023-03-20T20:49:49.122Z,15.30
2023-03-20T20:52:16.731Z,15.30
2023-03-20T20:54:44.070Z,15.30
2023-03-20T20:57:12.883Z,15.20
2023-03-20T21:00:18.302Z,15.30
2023-03-20T21:02:45.912Z,15.30
2023-03-20T21:05:14.780Z,15.20
2023-03-20T21:07:44.047Z,15.20
2023-03-20T21:10:13.064Z,15.40
2023-03-20T21:12:57.823Z,15.60
2023-03-20T21:15:27.482Z,15.20
2023-03-20T21:18:01.249Z,15.10
2023-03-20T21:20:30.859Z,15.10
2023-03-20T21:22:58.577Z,15.10
2023-03-20T21:25:39.137Z,15.10
2023-03-20T21:28:09.281Z,15.00
2023-03-20T21:30:44.278Z,15.00
2023-03-20T21:33:19.247Z,15.00
2023-03-20T21:35:48.412Z,15.00
2023-03-20T21:41:10.978Z,15.00
2023-03-20T21:43:39.493Z,15.00
2023-03-20T21:46:42.340Z,15.00
2023-03-20T21:52:35.933Z,15.00
2023-03-20T21:55:05.301Z,15.00
2023-03-20T21:57:55.800Z,14.90
2023-03-20T22:02:57.073Z,14.90
2023-03-20T22:06:02.522Z,14.90
2023-03-20T22:11:45.015Z,14.90
2023-03-20T22:17:40.640Z,14.90
2023-03-20T22:20:09.243Z,14.90
2023-03-20T22:28:38.584Z,14.80
2023-03-20T22:31:28.675Z,14.80
2023-03-20T22:34:16.684Z,14.80
2023-03-20T22:36:57.494Z,14.80
2023-03-20T22:39:39.235Z,14.80
2023-03-20T22:42:28.678Z,14.80
2023-03-20T22:45:04.672Z,14.80
2023-03-20T22:47:22.008Z,14.70
2023-03-20T22:49:49.821Z,14.70
2023-03-20T22:52:31.713Z,14.70
2023-03-20T22:55:04.587Z,15.10
2023-03-20T22:57:42.418Z,14.60
2023-03-20T23:00:14.315Z,14.60
2023-03-20T23:02:42.150Z,14.60
2023-03-20T23:05:10.444Z,14.60
2023-03-20T23:07:38.091Z,14.60
2023-03-20T23:10:07.116Z,14.50
2023-03-20T23:12:34.459Z,14.60
2023-03-20T23:15:01.863Z,14.60
2023-03-20T23:17:29.186Z,14.50
2023-03-20T23:20:05.298Z,14.60
2023-03-20T23:22:38.777Z,14.60
2023-03-20T23:25:16.371Z,14.60
2023-03-20T23:27:51.414Z,14.60
2023-03-20T23:30:19.829Z,14.60
2023-03-20T23:32:48.139Z,14.70
2023-03-20T23:35:15.427Z,14.60
2023-03-20T23:37:43.228Z,14.60
2023-03-20T23:40:11.137Z,14.70
2023-03-20T23:42:38.466Z,14.70
2023-03-20T23:45:19.201Z,14.70
2023-03-20T23:47:48.132Z,14.70
2023-03-20T23:50:34.293Z,14.70
2023-03-20T23:53:19.489Z,14.60
2023-03-20T23:55:49.812Z,14.60
2023-03-20T23:58:17.568Z,14.90
